Time;durP1;ratioP1;P1;durP2;ratioP2;P2;SDS_P1;SDS_P2;PMS_P1;PMS_P2;Temp;Humidity;BMP_temperature;BMP_pressure;BME280_temperature;BME280_humidity;BME280_pressure;Samples;Min_cycle;Max_cycle;Signal;HPM_P1;HPM_P2
2021/05/24 00:00:31;;;;;;;2.00;1.90;;;7.30;82.10;;;;;;5050089;28;20518;-77
2021/05/24 00:02:57;;;;;;;2.47;2.00;;;7.20;82.00;;;;;;5073229;28;20021;-77
2021/05/24 00:05:28;;;;;;;3.38;2.13;;;7.30;82.60;;;;;;5069852;28;20416;-78
2021/05/24 00:07:54;;;;;;;3.47;2.38;;;7.40;83.50;;;;;;5044746;28;20025;-78
2021/05/24 00:10:27;;;;;;;2.88;2.65;;;7.30;84.70;;;;;;5072346;28;20038;-77
2021/05/24 00:12:55;;;;;;;2.97;2.05;;;7.40;83.80;;;;;;5070025;28;20034;-77
2021/05/24 00:15:22;;;;;;;;;;;7.40;83.70;;;;;;5067942;28;20028;-78
2021/05/24 00:17:49;;;;;;;3.15;2.10;;;7.40;85.20;;;;;;5069894;28;20000;-78
2021/05/24 00:20:19;;;;;;;1.98;1.80;;;7.40;84.50;;;;;;5046277;28;20070;-77
2021/05/24 00:22:44;;;;;;;3.05;1.77;;;7.40;83.90;;;;;;5067735;28;20226;-78
2021/05/24 00:25:11;;;;;;;3.30;1.95;;;7.40;84.00;;;;;;5066910;28;20127;-78
2021/05/24 00:27:37;;;;;;;2.28;1.65;;;7.40;84.50;;;;;;5066671;28;20028;-77
2021/05/24 00:30:04;;;;;;;1.63;1.40;;;7.40;84.30;;;;;;5068872;28;20487;-78
2021/05/24 00:32:30;;;;;;;4.53;2.05;;;7.40;83.80;;;;;;5072675;28;20039;-77
2021/05/24 00:34:56;;;;;;;2.75;2.08;;;7.40;85.20;;;;;;5064158;28;20029;-77
2021/05/24 00:37:22;;;;;;;3.63;1.88;;;7.40;85.00;;;;;;5064673;28;20059;-77
2021/05/24 00:39:48;;;;;;;4.38;2.28;;;7.40;85.00;;;;;;5044309;28;20032;-77
2021/05/24 00:42:14;;;;;;;1.60;1.50;;;7.40;85.20;;;;;;5066647;28;20100;-78
2021/05/24 00:44:40;;;;;;;1.73;1.63;;;7.50;83.90;;;;;;5065848;28;20017;-78
2021/05/24 00:47:05;;;;;;;1.80;1.70;;;7.40;83.60;;;;;;5071870;28;20106;-77
2021/05/24 00:49:32;;;;;;;2.10;1.90;;;7.40;83.70;;;;;;5067382;28;20033;-78
2021/05/24 00:51:58;;;;;;;2.53;1.88;;;7.30;83.70;;;;;;5070023;28;20028;-77
2021/05/24 00:54:26;;;;;;;2.70;2.03;;;7.40;83.50;;;;;;5049057;28;20032;-78
2021/05/24 00:56:58;;;;;;;2.67;1.80;;;7.40;83.10;;;;;;5064355;28;20024;-77
2021/05/24 00:59:24;;;;;;;2.58;2.05;;;7.40;83.50;;;;;;5048715;28;20024;-78
2021/05/24 01:01:51;;;;;;;3.53;2.00;;;7.40;83.40;;;;;;5069732;28;20051;-78
2021/05/24 01:04:19;;;;;;;1.63;1.52;;;7.40;83.10;;;;;;5064409;28;20487;-78
2021/05/24 01:06:45;;;;;;;1.60;1.50;;;7.30;83.70;;;;;;5068757;28;20016;-77
2021/05/24 01:09:11;;;;;;;2.13;1.70;;;7.40;83.80;;;;;;5065217;28;20040;-77
2021/05/24 01:11:37;;;;;;;1.75;1.65;;;7.30;83.70;;;;;;5061426;28;20383;-78
2021/05/24 01:14:04;;;;;;;1.63;1.52;;;7.20;84.80;;;;;;5065165;28;20402;-78
2021/05/24 01:16:30;;;;;;;4.32;1.80;;;7.30;83.80;;;;;;5064023;28;20199;-77
2021/05/24 01:18:56;;;;;;;1.65;1.40;;;7.30;83.50;;;;;;5068142;28;20107;-78
2021/05/24 01:21:23;;;;;;;1.83;1.40;;;7.30;83.10;;;;;;5051013;28;20401;-77
2021/05/24 01:23:50;;;;;;;1.75;1.65;;;7.20;83.50;;;;;;5046353;28;20735;-78
2021/05/24 01:26:17;;;;;;;2.20;1.80;;;7.10;85.20;;;;;;5068392;28;20120;-77
2021/05/24 01:28:43;;;;;;;2.00;1.77;;;7.10;84.90;;;;;;5070559;28;20028;-78
2021/05/24 01:31:10;;;;;;;1.85;1.75;;;7.10;84.70;;;;;;5067526;28;20485;-78
2021/05/24 01:33:36;;;;;;;3.65;1.60;;;7.10;85.20;;;;;;5066542;28;20092;-78
2021/05/24 01:36:06;;;;;;;2.08;1.65;;;7.10;85.20;;;;;;5066763;28;20024;-78
2021/05/24 01:38:35;;;;;;;1.83;1.63;;;7.10;86.10;;;;;;5066157;28;20065;-77
2021/05/24 01:41:01;;;;;;;1.40;1.30;;;7.10;85.30;;;;;;5067431;28;20028;-78
2021/05/24 01:43:28;;;;;;;1.33;1.23;;;7.10;85.20;;;;;;5069225;28;20050;-78
2021/05/24 01:45:55;;;;;;;2.83;1.60;;;7.10;84.50;;;;;;5070668;28;20025;-78
2021/05/24 01:48:21;;;;;;;1.67;1.40;;;7.10;84.60;;;;;;5066558;28;20032;-77
2021/05/24 01:50:47;;;;;;;1.67;1.58;;;7.10;84.50;;;;;;5066257;28;20051;-78
2021/05/24 01:53:13;;;;;;;1.40;1.30;;;7.00;85.40;;;;;;5065662;28;20033;-78
2021/05/24 01:55:39;;;;;;;1.50;1.40;;;6.90;85.10;;;;;;5067349;28;20108;-78
2021/05/24 01:58:05;;;;;;;4.32;1.55;;;6.90;84.60;;;;;;5066916;28;20032;-78
2021/05/24 02:00:31;;;;;;;1.60;1.50;;;6.90;84.60;;;;;;5068637;28;20497;-78
2021/05/24 02:02:57;;;;;;;1.58;1.48;;;6.80;84.80;;;;;;5047359;28;20127;-78
2021/05/24 02:05:25;;;;;;;1.60;1.50;;;6.70;85.10;;;;;;5064518;28;20044;-79
2021/05/24 02:07:52;;;;;;;2.70;1.70;;;6.60;85.80;;;;;;5039682;28;20021;-78
2021/05/24 02:10:21;;;;;;;1.70;1.60;;;6.60;85.80;;;;;;5064503;28;20033;-78
2021/05/24 02:12:48;;;;;;;1.60;1.50;;;6.60;85.70;;;;;;5066682;28;20052;-79
2021/05/24 02:15:18;;;;;;;1.58;1.48;;;6.70;84.80;;;;;;5067047;28;20075;-78
2021/05/24 02:17:43;;;;;;;2.67;1.67;;;6.60;85.80;;;;;;5061549;28;20065;-79
2021/05/24 02:20:11;;;;;;;1.70;1.60;;;6.70;86.00;;;;;;5062683;28;20116;-78
2021/05/24 02:22:37;;;;;;;1.60;1.50;;;6.70;85.40;;;;;;5066282;28;20378;-79
2021/05/24 02:25:05;;;;;;;1.60;1.50;;;6.70;85.20;;;;;;5066815;28;20095;-79
2021/05/24 02:27:31;;;;;;;2.40;1.67;;;6.70;85.10;;;;;;5045320;28;20025;-78
2021/05/24 02:29:57;;;;;;;2.20;1.55;;;6.80;84.90;;;;;;5046352;28;20401;-78
2021/05/24 02:32:22;;;;;;;1.40;1.30;;;6.80;84.50;;;;;;5046945;28;20037;-78
2021/05/24 02:34:48;;;;;;;2.28;1.60;;;6.70;85.10;;;;;;5054384;28;20035;-77
2021/05/24 02:37:14;;;;;;;1.52;1.42;;;6.80;84.60;;;;;;5066074;28;20039;-78
2021/05/24 02:39:40;;;;;;;3.17;1.60;;;6.60;86.00;;;;;;5068913;28;20082;-78
2021/05/24 02:42:06;;;;;;;2.13;1.92;;;6.70;85.80;;;;;;5042586;28;20066;-78
2021/05/24 02:44:31;;;;;;;2.22;2.00;;;6.70;86.70;;;;;;5064225;28;20024;-76
2021/05/24 02:46:57;;;;;;;2.03;1.92;;;6.60;87.20;;;;;;5048215;28;20042;-77
2021/05/24 02:49:23;;;;;;;1.92;1.80;;;6.50;88.20;;;;;;5067623;28;20028;-78
2021/05/24 02:51:48;;;;;;;2.78;2.00;;;6.60;88.10;;;;;;5066641;28;20032;-78
2021/05/24 02:54:14;;;;;;;5.70;2.00;;;6.70;86.70;;;;;;5064842;28;20100;-78
2021/05/24 02:56:40;;;;;;;1.92;1.65;;;6.80;86.70;;;;;;5044247;28;20035;-78
2021/05/24 02:59:05;;;;;;;2.28;1.80;;;6.70;86.70;;;;;;5066678;28;20033;-78
2021/05/24 03:01:33;;;;;;;2.28;1.92;;;6.80;86.20;;;;;;5051511;28;20460;-78
2021/05/24 03:04:01;;;;;;;3.28;2.10;;;6.80;86.30;;;;;;5067963;28;20115;-78
2021/05/24 03:06:27;;;;;;;2.08;1.60;;;6.90;86.50;;;;;;5067794;28;20024;-78
2021/05/24 03:08:53;;;;;;;1.90;1.65;;;6.90;85.70;;;;;;5075088;28;20073;-79
2021/05/24 03:11:19;;;;;;;2.28;2.08;;;6.90;85.30;;;;;;5068145;28;20386;-78
2021/05/24 03:13:45;;;;;;;1.92;1.65;;;6.90;85.80;;;;;;5065635;28;21762;-79
2021/05/24 03:16:11;;;;;;;2.80;1.80;;;6.90;86.60;;;;;;5067758;28;20032;-77
2021/05/24 03:18:37;;;;;;;1.90;1.80;;;6.90;86.10;;;;;;5070981;28;20678;-78
2021/05/24 03:21:04;;;;;;;5.75;1.95;;;6.70;86.70;;;;;;5064972;28;20115;-77
2021/05/24 03:23:30;;;;;;;1.73;1.63;;;6.60;86.30;;;;;;5062812;28;20100;-77
2021/05/24 03:25:55;;;;;;;1.83;1.73;;;6.50;87.70;;;;;;5063511;28;20517;-77
2021/05/24 03:28:22;;;;;;;1.75;1.65;;;6.50;88.40;;;;;;5066978;28;20769;-78
2021/05/24 03:30:48;;;;;;;2.47;1.73;;;6.50;88.20;;;;;;5043544;28;20791;-77
2021/05/24 03:33:14;;;;;;;2.83;1.60;;;6.60;88.30;;;;;;5066108;28;20032;-77
2021/05/24 03:35:40;;;;;;;2.78;2.17;;;6.70;87.30;;;;;;5065283;28;20013;-78
2021/05/24 03:38:06;;;;;;;2.47;1.75;;;6.70;87.30;;;;;;5064372;28;20020;-78
2021/05/24 03:40:32;;;;;;;2.25;1.92;;;6.70;87.60;;;;;;5061578;28;20070;-78
2021/05/24 03:42:58;;;;;;;3.33;1.73;;;6.70;88.80;;;;;;5063524;28;20371;-78
2021/05/24 03:45:26;;;;;;;2.10;1.90;;;6.80;88.10;;;;;;5070023;28;20017;-77
2021/05/24 03:47:52;;;;;;;2.25;2.00;;;6.80;88.10;;;;;;5049716;28;20016;-77
2021/05/24 03:50:19;;;;;;;3.03;1.95;;;6.90;87.80;;;;;;5068633;28;20044;-78
2021/05/24 03:52:46;;;;;;;1.90;1.80;;;6.90;89.00;;;;;;5063280;28;20036;-78
2021/05/24 03:55:19;;;;;;;2.90;2.10;;;6.90;88.60;;;;;;5063741;28;20025;-77
2021/05/24 03:57:47;;;;;;;3.92;2.17;;;7.00;87.50;;;;;;5062309;28;20037;-77
2021/05/24 04:00:14;;;;;;;2.03;1.92;;;7.00;87.40;;;;;;5070287;28;20025;-77
2021/05/24 04:02:41;;;;;;;2.30;1.60;;;7.00;87.90;;;;;;5062134;28;20462;-78
2021/05/24 04:05:12;;;;;;;2.13;1.92;;;7.00;86.30;;;;;;5064791;28;20016;-78
2021/05/24 04:07:38;;;;;;;2.90;1.77;;;6.90;86.60;;;;;;5046268;28;20029;-77
2021/05/24 04:10:04;;;;;;;2.35;1.85;;;6.90;86.90;;;;;;5066657;28;20108;-78
2021/05/24 04:12:30;;;;;;;2.70;2.25;;;6.90;86.90;;;;;;5050482;28;20548;-77
2021/05/24 04:14:56;;;;;;;2.20;2.00;;;6.90;87.90;;;;;;5069014;28;20028;-78
2021/05/24 04:17:23;;;;;;;2.28;2.08;;;6.80;88.10;;;;;;5068540;28;20355;-78
2021/05/24 04:19:50;;;;;;;2.38;2.17;;;6.90;88.70;;;;;;5070581;28;20354;-78
2021/05/24 04:22:16;;;;;;;3.10;2.10;;;6.90;87.90;;;;;;5066136;28;20063;-78
2021/05/24 04:24:41;;;;;;;1.88;1.67;;;6.90;88.40;;;;;;5055324;28;20471;-77
2021/05/24 04:27:07;;;;;;;2.03;1.88;;;7.00;88.30;;;;;;5066608;28;20032;-78
2021/05/24 04:29:33;;;;;;;2.00;1.80;;;7.00;87.50;;;;;;5069512;28;20394;-77
2021/05/24 04:31:59;;;;;;;2.35;2.15;;;7.10;87.00;;;;;;5069581;28;20087;-78
2021/05/24 04:34:25;;;;;;;3.95;2.15;;;7.10;86.90;;;;;;5052916;28;20024;-78
2021/05/24 04:36:51;;;;;;;2.25;1.85;;;7.10;87.60;;;;;;5063180;28;20036;-78
2021/05/24 04:39:16;;;;;;;2.30;2.10;;;7.10;87.80;;;;;;5044363;28;20029;-78
2021/05/24 04:41:42;;;;;;;2.13;2.03;;;7.10;88.30;;;;;;5072307;28;20039;-78
2021/05/24 04:44:11;;;;;;;2.13;1.85;;;7.10;88.10;;;;;;5072771;28;20024;-77
2021/05/24 04:46:37;;;;;;;2.85;1.75;;;7.20;88.70;;;;;;5071241;28;20426;-78
2021/05/24 04:49:03;;;;;;;2.30;2.05;;;7.30;88.80;;;;;;5070477;28;20025;-78
2021/05/24 04:51:29;;;;;;;2.35;2.15;;;7.30;87.80;;;;;;5069203;28;20352;-78
2021/05/24 04:53:54;;;;;;;3.45;1.90;;;7.40;88.60;;;;;;5075462;28;20502;-77
2021/05/24 04:56:20;;;;;;;2.75;1.98;;;7.50;87.80;;;;;;5060727;28;20395;-77
2021/05/24 04:58:45;;;;;;;2.50;2.10;;;7.50;88.20;;;;;;5074895;28;20024;-77
2021/05/24 05:01:11;;;;;;;1.92;1.70;;;7.60;88.00;;;;;;5076202;28;20045;-78
2021/05/24 05:03:37;;;;;;;2.03;1.92;;;7.60;87.40;;;;;;5072478;28;20471;-78
2021/05/24 05:06:02;;;;;;;2.30;2.10;;;7.50;87.30;;;;;;5070241;28;20025;-78
2021/05/24 05:08:28;;;;;;;2.85;2.15;;;7.50;87.20;;;;;;5078948;28;20089;-78
2021/05/24 05:10:54;;;;;;;2.20;1.75;;;7.50;88.00;;;;;;5074209;28;20033;-78
2021/05/24 05:13:19;;;;;;;2.50;1.77;;;7.60;88.30;;;;;;5052094;28;20390;-79
2021/05/24 05:15:45;;;;;;;1.85;1.75;;;7.60;89.10;;;;;;5078944;28;20028;-78
2021/05/24 05:18:11;;;;;;;3.15;2.00;;;7.60;88.80;;;;;;5078590;28;20028;-78
2021/05/24 05:20:36;;;;;;;2.30;1.80;;;7.70;87.90;;;;;;5048976;28;20029;-78
2021/05/24 05:23:02;;;;;;;2.10;1.90;;;7.70;88.60;;;;;;5069839;28;20025;-78
2021/05/24 05:25:28;;;;;;;2.80;1.70;;;7.70;88.80;;;;;;5050502;28;20021;-77
2021/05/24 05:27:54;;;;;;;1.85;1.73;;;7.80;87.70;;;;;;5071895;28;20048;-78
2021/05/24 05:30:20;;;;;;;1.90;1.80;;;7.80;87.80;;;;;;5070018;28;20041;-78
2021/05/24 05:32:45;;;;;;;3.13;1.88;;;7.90;87.70;;;;;;5065533;28;20025;-78
2021/05/24 05:35:13;;;;;;;2.20;1.85;;;7.90;88.50;;;;;;5074231;28;20040;-78
2021/05/24 05:37:39;;;;;;;2.25;2.05;;;7.90;88.60;;;;;;5070965;28;20060;-78
2021/05/24 05:40:05;;;;;;;1.92;1.70;;;7.90;88.60;;;;;;5072766;28;20087;-78
2021/05/24 05:42:31;;;;;;;2.08;1.85;;;7.90;88.30;;;;;;5069381;28;20036;-78
2021/05/24 05:44:56;;;;;;;2.40;2.20;;;8.00;88.50;;;;;;5071230;28;20111;-78
2021/05/24 05:47:23;;;;;;;2.33;1.92;;;8.10;87.80;;;;;;5067175;28;20077;-78
2021/05/24 05:49:49;;;;;;;2.03;1.92;;;8.10;88.00;;;;;;5050505;28;20092;-77
2021/05/24 05:52:17;;;;;;;2.17;1.98;;;8.20;89.20;;;;;;5057854;28;20111;-78
2021/05/24 05:54:44;;;;;;;3.38;2.03;;;8.20;89.10;;;;;;5071489;28;20055;-78
2021/05/24 05:57:10;;;;;;;2.05;1.85;;;8.30;88.70;;;;;;5077745;28;20041;-78
2021/05/24 05:59:35;;;;;;;2.83;1.70;;;8.40;88.00;;;;;;5073249;28;20020;-79
2021/05/24 06:02:01;;;;;;;2.75;1.42;;;8.50;87.60;;;;;;5069247;28;20406;-78
2021/05/24 06:04:27;;;;;;;3.10;1.67;;;8.50;88.70;;;;;;5076158;28;20012;-78
2021/05/24 06:06:52;;;;;;;3.08;1.65;;;8.60;89.40;;;;;;5069029;28;20118;-78
2021/05/24 06:09:18;;;;;;;1.75;1.65;;;8.60;88.80;;;;;;5071194;28;20044;-78
2021/05/24 06:11:44;;;;;;;1.60;1.50;;;8.80;89.80;;;;;;5075747;28;20063;-79
2021/05/24 06:14:09;;;;;;;1.50;1.40;;;8.90;89.70;;;;;;5071313;28;20032;-78
2021/05/24 06:16:35;;;;;;;5.97;1.63;;;9.00;88.70;;;;;;5077807;28;20382;-79
2021/05/24 06:19:00;;;;;;;1.67;1.35;;;9.00;88.30;;;;;;5068411;28;20119;-78
2021/05/24 06:21:26;;;;;;;1.73;1.50;;;9.10;88.00;;;;;;5069235;28;20036;-78
2021/05/24 06:23:52;;;;;;;1.52;1.40;;;9.10;87.10;;;;;;5051392;28;20066;-79
2021/05/24 06:26:17;;;;;;;1.63;1.20;;;9.10;85.90;;;;;;5071474;28;20047;-78
2021/05/24 06:28:43;;;;;;;1.60;1.50;;;9.20;86.30;;;;;;5066202;28;20159;-78
2021/05/24 06:31:09;;;;;;;1.60;1.40;;;9.30;86.00;;;;;;5068219;28;20487;-79
2021/05/24 06:33:35;;;;;;;1.50;1.40;;;9.30;86.00;;;;;;5066548;28;20094;-79
2021/05/24 06:36:00;;;;;;;1.52;1.42;;;9.40;86.20;;;;;;5045836;28;20021;-78
2021/05/24 06:38:26;;;;;;;1.20;1.20;;;9.50;86.40;;;;;;5067383;28;20021;-78
2021/05/24 06:40:51;;;;;;;2.85;1.40;;;9.50;85.90;;;;;;5066190;28;20056;-78
2021/05/24 06:43:19;;;;;;;1.98;1.30;;;9.60;85.00;;;;;;5072904;28;20025;-78
2021/05/24 06:45:44;;;;;;;1.30;1.20;;;9.70;84.30;;;;;;5050089;28;20017;-78
2021/05/24 06:48:10;;;;;;;0.98;0.98;;;9.70;84.10;;;;;;5066545;28;20402;-78
2021/05/24 06:50:36;;;;;;;1.20;1.10;;;9.80;84.30;;;;;;5068049;28;20024;-79
2021/05/24 06:53:01;;;;;;;2.05;1.30;;;9.90;83.30;;;;;;5069878;28;20047;-79
2021/05/24 06:55:27;;;;;;;1.10;1.10;;;10.00;84.10;;;;;;5075921;28;20082;-79
2021/05/24 06:57:53;;;;;;;1.20;1.20;;;10.10;81.40;;;;;;5048490;28;20029;-79
2021/05/24 07:00:19;;;;;;;1.10;1.10;;;10.20;82.00;;;;;;5052706;28;20033;-78
2021/05/24 07:02:47;;;;;;;1.30;1.20;;;10.30;81.90;;;;;;5063921;28;20131;-79
2021/05/24 07:05:13;;;;;;;1.48;1.30;;;10.40;79.90;;;;;;5069812;28;20032;-79
2021/05/24 07:07:39;;;;;;;2.85;1.42;;;10.40;80.10;;;;;;5071372;28;20058;-79
2021/05/24 07:10:06;;;;;;;1.23;1.15;;;10.50;80.40;;;;;;5070426;28;20028;-79
2021/05/24 07:12:32;;;;;;;3.05;1.52;;;10.60;80.10;;;;;;5071819;28;20119;-79
2021/05/24 07:14:57;;;;;;;2.95;1.45;;;10.70;80.00;;;;;;5064853;28;20031;-79
2021/05/24 07:17:23;;;;;;;2.20;2.00;;;10.80;80.10;;;;;;5069525;28;20140;-79
2021/05/24 07:19:50;;;;;;;1.15;1.05;;;10.90;80.00;;;;;;5066519;28;20124;-79
2021/05/24 07:22:16;;;;;;;1.35;1.23;;;10.90;78.90;;;;;;5065293;28;20090;-79
2021/05/24 07:24:41;;;;;;;1.58;1.23;;;11.00;77.70;;;;;;5072857;28;20036;-79
2021/05/24 07:27:07;;;;;;;1.30;1.20;;;11.10;78.50;;;;;;5072720;28;20553;-78
2021/05/24 07:29:33;;;;;;;1.90;1.10;;;11.10;77.70;;;;;;5071907;28;20033;-79
2021/05/24 07:31:59;;;;;;;0.93;0.93;;;11.20;76.50;;;;;;5050625;28;20635;-79
2021/05/24 07:34:24;;;;;;;0.95;0.95;;;11.20;77.10;;;;;;5068280;28;20040;-78
2021/05/24 07:36:50;;;;;;;1.35;1.10;;;11.20;78.20;;;;;;5065341;28;20016;-79
2021/05/24 07:39:16;;;;;;;0.82;0.80;;;11.30;78.80;;;;;;5051222;28;20056;-78
2021/05/24 07:41:41;;;;;;;1.30;1.20;;;11.30;77.00;;;;;;5083890;28;20023;-79
2021/05/24 07:44:07;;;;;;;2.70;1.20;;;11.30;76.50;;;;;;5072696;28;20095;-77
2021/05/24 07:46:33;;;;;;;1.25;1.10;;;11.40;76.70;;;;;;5071004;28;20039;-81
2021/05/24 07:48:59;;;;;;;1.35;1.25;;;11.50;76.40;;;;;;5054406;28;20028;-81
2021/05/24 07:51:25;;;;;;;1.15;1.05;;;11.60;76.50;;;;;;5071575;28;20523;-79
2021/05/24 07:53:52;;;;;;;5.15;1.25;;;11.70;76.00;;;;;;5072689;28;20095;-78
2021/05/24 07:56:18;;;;;;;0.90;0.90;;;11.80;75.50;;;;;;5071382;28;20036;-78
2021/05/24 07:58:43;;;;;;;2.13;1.02;;;11.90;74.00;;;;;;5072963;28;20048;-81
2021/05/24 08:01:09;;;;;;;2.42;1.48;;;11.90;74.00;;;;;;5071088;28;20784;-80
2021/05/24 08:03:34;;;;;;;0.95;0.80;;;11.90;73.80;;;;;;5075401;28;20145;-81
2021/05/24 08:06:00;;;;;;;1.00;0.95;;;11.90;73.70;;;;;;5070657;28;20028;-81
2021/05/24 08:08:26;;;;;;;1.23;1.10;;;11.90;74.00;;;;;;5049544;28;20181;-80
2021/05/24 08:10:51;;;;;;;1.40;1.27;;;11.90;75.10;;;;;;5049926;28;20028;-80
2021/05/24 08:13:17;;;;;;;1.70;1.30;;;11.90;74.90;;;;;;5072990;28;20101;-81
2021/05/24 08:15:43;;;;;;;1.40;1.30;;;12.00;75.10;;;;;;5069335;28;20035;-80
2021/05/24 08:18:09;;;;;;;0.90;0.90;;;12.10;74.60;;;;;;5053154;28;20029;-81
2021/05/24 08:20:36;;;;;;;1.65;0.80;;;12.20;74.60;;;;;;5055421;28;20035;-79
2021/05/24 08:23:03;;;;;;;0.68;0.68;;;12.20;73.90;;;;;;5069320;28;20406;-78
2021/05/24 08:25:29;;;;;;;0.90;0.90;;;12.20;75.10;;;;;;5064388;28;20029;-79
2021/05/24 08:27:55;;;;;;;0.80;0.80;;;12.30;74.30;;;;;;5076963;28;20027;-78
2021/05/24 08:30:21;;;;;;;0.75;0.75;;;12.30;74.00;;;;;;5055363;28;20024;-81
2021/05/24 08:32:47;;;;;;;1.42;1.10;;;12.30;73.80;;;;;;5075242;28;20043;-80
2021/05/24 08:35:13;;;;;;;1.40;0.95;;;12.30;73.50;;;;;;5054182;28;20043;-81
2021/05/24 08:37:39;;;;;;;0.80;0.80;;;12.30;73.70;;;;;;5055903;28;20067;-80
2021/05/24 08:40:07;;;;;;;0.80;0.80;;;12.40;73.30;;;;;;5064010;28;20067;-81
2021/05/24 08:42:37;;;;;;;0.77;0.75;;;12.40;73.60;;;;;;5070473;28;20234;-81
2021/05/24 08:45:04;;;;;;;1.02;1.02;;;12.30;72.70;;;;;;5050565;28;20032;-80
2021/05/24 08:47:31;;;;;;;0.90;0.90;;;12.40;73.20;;;;;;5069934;28;20016;-81
2021/05/24 08:49:58;;;;;;;1.27;1.00;;;12.40;73.10;;;;;;5069093;28;20035;-81
2021/05/24 08:52:24;;;;;;;1.00;0.90;;;12.40;72.80;;;;;;5068603;28;20027;-81
2021/05/24 08:54:50;;;;;;;1.13;1.00;;;12.40;72.80;;;;;;5069179;28;20039;-80
2021/05/24 08:57:15;;;;;;;1.38;0.80;;;12.40;71.90;;;;;;5068011;28;20641;-80
2021/05/24 08:59:41;;;;;;;0.80;0.73;;;12.40;73.80;;;;;;5045575;28;20050;-80
2021/05/24 09:02:07;;;;;;;2.00;0.88;;;12.40;72.40;;;;;;5067488;28;20037;-80
2021/05/24 09:04:45;;;;;;;0.88;0.88;;;12.50;73.10;;;;;;5066997;28;20017;-81
2021/05/24 09:07:12;;;;;;;3.28;1.10;;;12.50;73.80;;;;;;5061156;28;20013;-81
2021/05/24 09:09:38;;;;;;;0.80;0.80;;;12.50;74.30;;;;;;5062591;28;20533;-81
2021/05/24 09:12:16;;;;;;;1.30;0.88;;;12.50;71.80;;;;;;5064883;28;20028;-80
2021/05/24 09:14:43;;;;;;;1.23;1.05;;;12.60;72.00;;;;;;5063265;28;20514;-80
2021/05/24 09:17:08;;;;;;;1.23;0.90;;;12.60;72.30;;;;;;5068389;28;20027;-80
2021/05/24 09:19:37;;;;;;;5.25;1.05;;;12.70;70.50;;;;;;5050414;28;20419;-80
2021/05/24 09:22:05;;;;;;;1.50;0.88;;;12.70;70.70;;;;;;5071816;28;20058;-79
2021/05/24 09:24:34;;;;;;;1.20;1.10;;;12.70;69.40;;;;;;5064548;28;20466;-79
2021/05/24 09:27:02;;;;;;;0.70;0.70;;;12.80;70.70;;;;;;5070364;28;20107;-80
2021/05/24 09:29:42;;;;;;;1.00;0.82;;;12.80;71.00;;;;;;5072767;28;20036;-79
2021/05/24 09:32:18;;;;;;;1.52;1.00;;;12.90;69.20;;;;;;5069037;28;20062;-78
2021/05/24 09:34:46;;;;;;;1.10;0.70;;;12.90;70.50;;;;;;5061009;28;20029;-79
2021/05/24 09:37:13;;;;;;;0.98;0.95;;;13.00;69.80;;;;;;5062480;28;20036;-79
2021/05/24 09:39:38;;;;;;;0.90;0.90;;;13.10;70.30;;;;;;5062755;28;20025;-79
2021/05/24 09:42:07;;;;;;;0.90;0.90;;;13.10;70.50;;;;;;5067416;28;20147;-79
2021/05/24 09:44:33;;;;;;;0.98;0.90;;;13.20;70.80;;;;;;5050916;28;20028;-79
2021/05/24 09:47:01;;;;;;;1.13;0.90;;;13.30;69.00;;;;;;5061504;28;20037;-79
2021/05/24 09:49:31;;;;;;;1.00;0.90;;;13.30;68.90;;;;;;5072639;28;20384;-79
2021/05/24 09:51:58;;;;;;;0.77;0.77;;;13.30;69.20;;;;;;5063439;28;20024;-79
2021/05/24 09:54:31;;;;;;;0.70;0.70;;;13.40;69.20;;;;;;5064128;28;20020;-79
2021/05/24 09:56:59;;;;;;;1.00;0.90;;;13.50;68.00;;;;;;5063027;28;20090;-79
2021/05/24 09:59:26;;;;;;;0.90;0.90;;;13.50;69.50;;;;;;5043052;28;20552;-80
2021/05/24 10:01:56;;;;;;;1.30;1.02;;;13.60;70.00;;;;;;5065973;28;20025;-80
2021/05/24 10:04:25;;;;;;;1.30;1.08;;;13.70;70.60;;;;;;5069332;28;20028;-80
2021/05/24 10:06:51;;;;;;;1.00;0.90;;;13.70;69.80;;;;;;5067450;28;20165;-80
2021/05/24 10:09:18;;;;;;;0.80;0.77;;;13.70;69.30;;;;;;5065997;28;20036;-80
2021/05/24 10:11:47;;;;;;;1.15;0.80;;;13.80;70.10;;;;;;5069119;28;20025;-78
2021/05/24 10:14:15;;;;;;;0.90;0.90;;;13.90;69.90;;;;;;5074814;28;20039;-79
2021/05/24 10:16:44;;;;;;;1.10;1.00;;;13.90;67.70;;;;;;5054968;28;20032;-79
2021/05/24 10:19:14;;;;;;;1.42;1.00;;;13.90;68.60;;;;;;5073866;28;20075;-79
2021/05/24 10:21:40;;;;;;;4.10;1.00;;;14.00;69.80;;;;;;5074030;28;20195;-79
2021/05/24 10:24:07;;;;;;;1.13;0.90;;;14.10;69.40;;;;;;5073966;28;20502;-79
2021/05/24 10:26:33;;;;;;;0.98;0.70;;;14.10;67.70;;;;;;5074103;28;20035;-78
2021/05/24 10:29:01;;;;;;;0.70;0.70;;;14.10;67.90;;;;;;5067601;28;20542;-78
2021/05/24 10:31:29;;;;;;;;;;;14.10;69.00;;;;;;5054360;28;20029;-78
2021/05/24 10:34:07;;;;;;;1.02;0.80;;;14.20;67.00;;;;;;5068624;28;19904;-78
2021/05/24 10:36:33;;;;;;;2.38;0.90;;;14.30;67.00;;;;;;5070671;28;20520;-79
2021/05/24 10:39:07;;;;;;;2.13;0.82;;;14.30;66.10;;;;;;5045227;28;20056;-79
2021/05/24 10:41:47;;;;;;;0.80;0.80;;;14.30;67.70;;;;;;5071530;28;20026;-79
2021/05/24 10:44:17;;;;;;;1.10;1.00;;;14.40;68.20;;;;;;5066204;28;20024;-79
2021/05/24 10:46:43;;;;;;;0.90;0.90;;;14.30;66.80;;;;;;5050766;28;20037;-79
2021/05/24 10:49:22;;;;;;;1.23;0.95;;;14.30;68.50;;;;;;5062089;28;20025;-79
2021/05/24 10:51:48;;;;;;;0.85;0.80;;;14.40;67.70;;;;;;5049602;28;20137;-79
2021/05/24 10:54:24;;;;;;;2.42;1.00;;;14.50;68.00;;;;;;5065756;28;20630;-79
2021/05/24 10:56:59;;;;;;;0.80;0.80;;;14.50;66.10;;;;;;5047995;28;20030;-79
2021/05/24 10:59:47;;;;;;;0.98;0.80;;;14.50;67.20;;;;;;5068576;28;20012;-80
2021/05/24 11:02:33;;;;;;;0.75;0.70;;;14.60;68.30;;;;;;5066578;28;20980;-79
2021/05/24 11:05:20;;;;;;;0.90;0.80;;;14.70;68.30;;;;;;5064759;28;20090;-80
2021/05/24 11:07:51;;;;;;;1.00;0.93;;;14.70;66.90;;;;;;5065628;28;20020;-80
2021/05/24 11:10:19;;;;;;;1.20;0.90;;;14.70;68.30;;;;;;5068976;28;20027;-79
2021/05/24 11:12:46;;;;;;;;;;;14.90;69.30;;;;;;5043032;28;20368;-80
2021/05/24 11:15:19;;;;;;;0.90;0.90;;;14.90;69.10;;;;;;5065249;28;19915;-81
2021/05/24 11:18:00;;;;;;;1.00;0.80;;;14.90;69.80;;;;;;5052721;28;20145;-82
2021/05/24 11:20:51;;;;;;;1.00;0.90;;;15.00;69.10;;;;;;5056246;28;20025;-81
2021/05/24 11:26:31;;;;;;;2.22;2.03;;;15.10;69.20;;;;;;5067028;28;20766;-82
2021/05/24 11:29:17;;;;;;;1.10;1.05;;;15.10;69.00;;;;;;5047292;28;20027;-82
2021/05/24 11:31:52;;;;;;;0.90;0.90;;;15.10;67.30;;;;;;5050398;28;20025;-82
2021/05/24 11:34:31;;;;;;;1.30;0.90;;;14.90;67.60;;;;;;5067156;28;20503;-83
2021/05/24 11:36:58;;;;;;;4.07;1.50;;;14.90;67.90;;;;;;5051583;28;20021;-82
2021/05/24 11:39:47;;;;;;;1.13;1.02;;;15.00;69.70;;;;;;5049137;28;20160;-81
2021/05/24 11:42:21;;;;;;;1.05;1.00;;;15.10;66.90;;;;;;5043964;28;20021;-81
2021/05/24 11:44:48;;;;;;;1.67;0.90;;;15.20;68.80;;;;;;5061553;28;20050;-82
2021/05/24 11:47:25;;;;;;;1.30;0.93;;;15.40;68.00;;;;;;5047369;28;20558;-81
2021/05/24 11:49:53;;;;;;;0.87;0.87;;;15.50;69.50;;;;;;5067710;28;20044;-80
2021/05/24 11:52:20;;;;;;;0.98;0.98;;;15.40;66.20;;;;;;5061773;28;20024;-82
2021/05/24 11:54:50;;;;;;;0.65;0.65;;;15.30;66.40;;;;;;5066327;28;20112;-81
2021/05/24 11:57:29;;;;;;;0.90;0.90;;;15.50;64.10;;;;;;5060906;28;20486;-81
2021/05/24 11:59:55;;;;;;;0.70;0.70;;;15.60;65.00;;;;;;5062057;28;20024;-82
2021/05/24 12:02:23;;;;;;;1.00;0.90;;;15.70;65.20;;;;;;5046252;28;20033;-82
2021/05/24 12:04:49;;;;;;;1.07;0.93;;;15.80;66.00;;;;;;5064295;28;20017;-82
2021/05/24 12:07:20;;;;;;;0.80;0.80;;;15.90;64.70;;;;;;5041021;28;20390;-82
2021/05/24 12:09:47;;;;;;;1.00;1.00;;;15.90;64.20;;;;;;5068929;28;20016;-81
2021/05/24 12:12:20;;;;;;;1.17;0.90;;;16.00;63.00;;;;;;5050448;28;20051;-83
2021/05/24 12:14:51;;;;;;;0.95;0.95;;;16.00;63.10;;;;;;5048402;28;20028;-84
2021/05/24 12:17:21;;;;;;;2.78;1.00;;;16.00;63.10;;;;;;5049739;28;20132;-82
2021/05/24 12:19:51;;;;;;;1.25;0.90;;;16.00;63.20;;;;;;5066316;28;20036;-82
2021/05/24 12:22:17;;;;;;;0.82;0.82;;;16.10;61.30;;;;;;5045117;28;20033;-82
2021/05/24 12:24:47;;;;;;;1.02;1.00;;;16.10;60.60;;;;;;5045735;28;20036;-83
2021/05/24 12:27:15;;;;;;;0.82;0.82;;;16.10;63.30;;;;;;5047329;28;20017;-82
2021/05/24 12:29:53;;;;;;;1.08;1.00;;;16.10;63.10;;;;;;5044867;28;20036;-82
2021/05/24 12:32:29;;;;;;;;;;;16.10;64.30;;;;;;5047386;28;20045;-83
2021/05/24 12:34:55;;;;;;;1.38;0.80;;;16.10;63.50;;;;;;5065492;28;19916;-83
2021/05/24 12:37:21;;;;;;;1.10;1.00;;;16.00;62.90;;;;;;5052987;28;20052;-83
2021/05/24 12:39:48;;;;;;;3.15;1.00;;;16.00;63.70;;;;;;5066308;28;20028;-83
2021/05/24 12:42:15;;;;;;;1.30;1.20;;;16.20;63.90;;;;;;5052127;28;20584;-82
2021/05/24 12:44:41;;;;;;;2.00;0.88;;;16.10;63.60;;;;;;5050665;28;20028;-83
2021/05/24 12:47:19;;;;;;;1.10;1.00;;;16.10;62.80;;;;;;5050895;28;20086;-83
2021/05/24 12:49:47;;;;;;;;;;;16.00;61.40;;;;;;5064344;28;20059;-83
2021/05/24 12:52:14;;;;;;;1.47;1.17;;;16.00;62.40;;;;;;5047498;28;20335;-83
2021/05/24 12:54:47;;;;;;;1.52;0.88;;;16.10;62.90;;;;;;5047959;28;20031;-81
2021/05/24 12:57:16;;;;;;;4.32;1.48;;;16.10;65.20;;;;;;5064332;28;20025;-82